sensor_id;sensor_type;location;lat;lon;timestamp;pressure;altitude;pressure_sealevel;temperature
81657;BMP280;71067;51.482;-0.580;2024-03-17T00:01:03;101729.16;;;11.48
81657;BMP280;71067;51.482;-0.580;2024-03-17T00:03:29;101706.38;;;11.42
81657;BMP280;71067;51.482;-0.580;2024-03-17T00:05:58;101714.91;;;11.52
81657;BMP280;71067;51.482;-0.580;2024-03-17T00:08:24;101699.25;;;11.54
81657;BMP280;71067;51.482;-0.580;2024-03-17T00:10:51;101704.13;;;11.57
81657;BMP280;71067;51.482;-0.580;2024-03-17T00:13:17;101694.72;;;11.56
81657;BMP280;71067;51.482;-0.580;2024-03-17T00:15:42;101668.81;;;11.46
81657;BMP280;71067;51.482;-0.580;2024-03-17T00:18:07;101675.75;;;11.55
81657;BMP280;71067;51.482;-0.580;2024-03-17T00:20:33;101682.56;;;11.66
81657;BMP280;71067;51.482;-0.580;2024-03-17T00:22:59;101693.31;;;11.71
81657;BMP280;71067;51.482;-0.580;2024-03-17T00:25:24;101678.19;;;11.66
81657;BMP280;71067;51.482;-0.580;2024-03-17T00:27:49;101677.19;;;11.67
81657;BMP280;71067;51.482;-0.580;2024-03-17T00:30:16;101674.06;;;11.73
81657;BMP280;71067;51.482;-0.580;2024-03-17T00:32:42;101667.22;;;11.72
81657;BMP280;71067;51.482;-0.580;2024-03-17T00:35:09;101644.59;;;11.65
81657;BMP280;71067;51.482;-0.580;2024-03-17T00:37:35;101656.41;;;11.77
81657;BMP280;71067;51.482;-0.580;2024-03-17T00:40:02;101655.31;;;11.79
81657;BMP280;71067;51.482;-0.580;2024-03-17T00:42:27;101657.91;;;11.79
81657;BMP280;71067;51.482;-0.580;2024-03-17T00:44:52;101621.03;;;11.58
81657;BMP280;71067;51.482;-0.580;2024-03-17T00:47:18;101655.19;;;11.81
81657;BMP280;71067;51.482;-0.580;2024-03-17T00:49:43;101655.03;;;11.82
81657;BMP280;71067;51.482;-0.580;2024-03-17T00:52:08;101642.75;;;11.75
81657;BMP280;71067;51.482;-0.580;2024-03-17T00:54:34;101659.50;;;11.90
81657;BMP280;71067;51.482;-0.580;2024-03-17T00:57:00;101663.69;;;11.91
81657;BMP280;71067;51.482;-0.580;2024-03-17T00:59:25;101671.38;;;11.92
81657;BMP280;71067;51.482;-0.580;2024-03-17T01:01:51;101637.00;;;11.81
81657;BMP280;71067;51.482;-0.580;2024-03-17T01:04:16;101632.38;;;11.75
81657;BMP280;71067;51.482;-0.580;2024-03-17T01:06:41;101637.00;;;11.81
81657;BMP280;71067;51.482;-0.580;2024-03-17T01:09:07;101638.34;;;11.85
81657;BMP280;71067;51.482;-0.580;2024-03-17T01:11:34;101643.50;;;11.94
81657;BMP280;71067;51.482;-0.580;2024-03-17T01:13:59;101633.16;;;11.85
81657;BMP280;71067;51.482;-0.580;2024-03-17T01:16:24;101648.22;;;11.99
81657;BMP280;71067;51.482;-0.580;2024-03-17T01:18:49;101636.66;;;11.93
81657;BMP280;71067;51.482;-0.580;2024-03-17T01:21:15;101636.06;;;11.99
81657;BMP280;71067;51.482;-0.580;2024-03-17T01:23:40;101625.53;;;12.01
81657;BMP280;71067;51.482;-0.580;2024-03-17T01:26:05;101599.81;;;11.90
81657;BMP280;71067;51.482;-0.580;2024-03-17T01:28:31;101615.00;;;12.02
81657;BMP280;71067;51.482;-0.580;2024-03-17T01:30:56;101578.53;;;11.86
81657;BMP280;71067;51.482;-0.580;2024-03-17T01:33:21;101617.31;;;12.06
81657;BMP280;71067;51.482;-0.580;2024-03-17T01:35:47;101579.03;;;11.90
81657;BMP280;71067;51.482;-0.580;2024-03-17T01:38:13;101579.72;;;11.92
81657;BMP280;71067;51.482;-0.580;2024-03-17T01:40:38;101607.47;;;12.09
81657;BMP280;71067;51.482;-0.580;2024-03-17T01:43:04;101598.06;;;12.08
81657;BMP280;71067;51.482;-0.580;2024-03-17T01:45:33;101598.06;;;12.08
81657;BMP280;71067;51.482;-0.580;2024-03-17T01:48:00;101590.69;;;12.04
81657;BMP280;71067;51.482;-0.580;2024-03-17T01:50:31;101591.88;;;12.09
81657;BMP280;71067;51.482;-0.580;2024-03-17T01:53:01;101589.97;;;12.11
81657;BMP280;71067;51.482;-0.580;2024-03-17T01:55:27;101597.44;;;12.14
81657;BMP280;71067;51.482;-0.580;2024-03-17T01:57:53;101589.66;;;12.14
81657;BMP280;71067;51.482;-0.580;2024-03-17T02:00:19;101562.00;;;12.05
81657;BMP280;71067;51.482;-0.580;2024-03-17T02:02:45;101576.66;;;12.14
81657;BMP280;71067;51.482;-0.580;2024-03-17T02:05:10;101569.03;;;12.13
81657;BMP280;71067;51.482;-0.580;2024-03-17T02:07:36;101543.47;;;12.00
81657;BMP280;71067;51.482;-0.580;2024-03-17T02:10:02;101577.72;;;12.21
81657;BMP280;71067;51.482;-0.580;2024-03-17T02:12:31;101542.06;;;12.06
81657;BMP280;71067;51.482;-0.580;2024-03-17T02:14:59;101548.63;;;12.18
81657;BMP280;71067;51.482;-0.580;2024-03-17T02:17:25;101562.00;;;12.23
81657;BMP280;71067;51.482;-0.580;2024-03-17T02:19:51;101523.38;;;12.02
81657;BMP280;71067;51.482;-0.580;2024-03-17T02:22:17;101554.84;;;12.25
81657;BMP280;71067;51.482;-0.580;2024-03-17T02:24:43;101548.84;;;12.24
81657;BMP280;71067;51.482;-0.580;2024-03-17T02:27:09;101529.63;;;12.17
81657;BMP280;71067;51.482;-0.580;2024-03-17T02:29:34;101508.44;;;12.04
81657;BMP280;71067;51.482;-0.580;2024-03-17T02:32:03;101524.97;;;12.21
81657;BMP280;71067;51.482;-0.580;2024-03-17T02:34:33;101521.56;;;12.20
81657;BMP280;71067;51.482;-0.580;2024-03-17T02:36:58;101501.03;;;12.09
81657;BMP280;71067;51.482;-0.580;2024-03-17T02:39:24;101526.81;;;12.28
81657;BMP280;71067;51.482;-0.580;2024-03-17T02:42:06;101512.34;;;12.26
81657;BMP280;71067;51.482;-0.580;2024-03-17T02:44:33;101505.03;;;12.21
81657;BMP280;71067;51.482;-0.580;2024-03-17T02:46:59;101521.31;;;12.31
81657;BMP280;71067;51.482;-0.580;2024-03-17T02:49:25;101488.78;;;12.19
81657;BMP280;71067;51.482;-0.580;2024-03-17T02:51:53;101507.06;;;12.35
81657;BMP280;71067;51.482;-0.580;2024-03-17T02:54:19;101507.38;;;12.32
81657;BMP280;71067;51.482;-0.580;2024-03-17T02:56:45;101500.19;;;12.26
81657;BMP280;71067;51.482;-0.580;2024-03-17T02:59:11;101471.72;;;12.17
81657;BMP280;71067;51.482;-0.580;2024-03-17T03:01:36;101478.91;;;12.23
81657;BMP280;71067;51.482;-0.580;2024-03-17T03:04:02;101503.19;;;12.39
81657;BMP280;71067;51.482;-0.580;2024-03-17T03:06:27;101486.63;;;12.32
81657;BMP280;71067;51.482;-0.580;2024-03-17T03:08:52;101497.72;;;12.42
81657;BMP280;71067;51.482;-0.580;2024-03-17T03:11:18;101472.66;;;12.33
81657;BMP280;71067;51.482;-0.580;2024-03-17T03:13:44;101488.16;;;12.43
81657;BMP280;71067;51.482;-0.580;2024-03-17T03:16:10;101470.88;;;12.34
81657;BMP280;71067;51.482;-0.580;2024-03-17T03:18:37;101467.31;;;12.35
81657;BMP280;71067;51.482;-0.580;2024-03-17T03:21:03;101487.03;;;12.45
81657;BMP280;71067;51.482;-0.580;2024-03-17T03:23:29;101477.59;;;12.44
81657;BMP280;71067;51.482;-0.580;2024-03-17T03:25:55;101473.66;;;12.40
81657;BMP280;71067;51.482;-0.580;2024-03-17T03:28:22;101472.88;;;12.40
81657;BMP280;71067;51.482;-0.580;2024-03-17T03:30:48;101455.97;;;12.36
81657;BMP280;71067;51.482;-0.580;2024-03-17T03:33:13;101469.63;;;12.46
81657;BMP280;71067;51.482;-0.580;2024-03-17T03:35:38;101429.75;;;12.21
81657;BMP280;71067;51.482;-0.580;2024-03-17T03:38:05;101459.09;;;12.47
81657;BMP280;71067;51.482;-0.580;2024-03-17T03:40:30;101455.84;;;12.45
81657;BMP280;71067;51.482;-0.580;2024-03-17T03:42:56;101454.75;;;12.48
81657;BMP280;71067;51.482;-0.580;2024-03-17T03:45:22;101441.75;;;12.48
81657;BMP280;71067;51.482;-0.580;2024-03-17T03:47:49;101435.69;;;12.39
81657;BMP280;71067;51.482;-0.580;2024-03-17T03:50:17;101453.00;;;12.56
81657;BMP280;71067;51.482;-0.580;2024-03-17T03:52:42;101449.59;;;12.56
81657;BMP280;71067;51.482;-0.580;2024-03-17T03:55:09;101440.66;;;12.58
81657;BMP280;71067;51.482;-0.580;2024-03-17T03:57:41;101424.03;;;12.51
81657;BMP280;71067;51.482;-0.580;2024-03-17T04:00:07;101446.50;;;12.60
81657;BMP280;71067;51.482;-0.580;2024-03-17T04:02:43;101439.38;;;12.62
81657;BMP280;71067;51.482;-0.580;2024-03-17T04:05:09;101400.66;;;12.43
81657;BMP280;71067;51.482;-0.580;2024-03-17T04:07:35;101426.56;;;12.61
81657;BMP280;71067;51.482;-0.580;2024-03-17T04:10:02;101401.69;;;12.50
81657;BMP280;71067;51.482;-0.580;2024-03-17T04:12:28;101421.19;;;12.62
81657;BMP280;71067;51.482;-0.580;2024-03-17T04:14:53;101418.44;;;12.64
81657;BMP280;71067;51.482;-0.580;2024-03-17T04:17:20;101400.53;;;12.53
81657;BMP280;71067;51.482;-0.580;2024-03-17T04:19:51;101420.88;;;12.65
81657;BMP280;71067;51.482;-0.580;2024-03-17T04:22:17;101396.63;;;12.49
81657;BMP280;71067;51.482;-0.580;2024-03-17T04:24:46;101414.69;;;12.58
81657;BMP280;71067;51.482;-0.580;2024-03-17T04:27:12;101416.97;;;12.61
81657;BMP280;71067;51.482;-0.580;2024-03-17T04:29:40;101397.13;;;12.52
81657;BMP280;71067;51.482;-0.580;2024-03-17T04:32:06;101407.88;;;12.57
81657;BMP280;71067;51.482;-0.580;2024-03-17T04:34:31;101381.19;;;12.47
81657;BMP280;71067;51.482;-0.580;2024-03-17T04:36:58;101394.53;;;12.52
81657;BMP280;71067;51.482;-0.580;2024-03-17T04:39:24;101400.59;;;12.61
81657;BMP280;71067;51.482;-0.580;2024-03-17T04:41:49;101398.47;;;12.64
81657;BMP280;71067;51.482;-0.580;2024-03-17T04:44:15;101406.88;;;12.58
81657;BMP280;71067;51.482;-0.580;2024-03-17T04:46:41;101393.53;;;12.53
81657;BMP280;71067;51.482;-0.580;2024-03-17T04:49:06;101400.72;;;12.59
81657;BMP280;71067;51.482;-0.580;2024-03-17T04:51:31;101402.19;;;12.62
81657;BMP280;71067;51.482;-0.580;2024-03-17T04:54:00;101397.47;;;12.57
81657;BMP280;71067;51.482;-0.580;2024-03-17T04:56:28;101398.31;;;12.66
81657;BMP280;71067;51.482;-0.580;2024-03-17T04:58:53;101399.09;;;12.66
81657;BMP280;71067;51.482;-0.580;2024-03-17T05:01:19;101389.06;;;12.63
81657;BMP280;71067;51.482;-0.580;2024-03-17T05:03:45;101379.63;;;12.62
81657;BMP280;71067;51.482;-0.580;2024-03-17T05:06:10;101393.91;;;12.66
81657;BMP280;71067;51.482;-0.580;2024-03-17T05:08:36;101376.03;;;12.55
81657;BMP280;71067;51.482;-0.580;2024-03-17T05:11:03;101371.81;;;12.54
81657;BMP280;71067;51.482;-0.580;2024-03-17T05:13:33;101383.34;;;12.60
81657;BMP280;71067;51.482;-0.580;2024-03-17T05:15:59;101386.13;;;12.66
81657;BMP280;71067;51.482;-0.580;2024-03-17T05:18:25;101389.53;;;12.67
81657;BMP280;71067;51.482;-0.580;2024-03-17T05:20:59;101391.31;;;12.66
81657;BMP280;71067;51.482;-0.580;2024-03-17T05:23:26;101392.00;;;12.68
81657;BMP280;71067;51.482;-0.580;2024-03-17T05:25:52;101369.53;;;12.59
81657;BMP280;71067;51.482;-0.580;2024-03-17T05:28:18;101380.78;;;12.68
81657;BMP280;71067;51.482;-0.580;2024-03-17T05:30:43;101369.88;;;12.56
81657;BMP280;71067;51.482;-0.580;2024-03-17T05:33:09;101397.50;;;12.65
81657;BMP280;71067;51.482;-0.580;2024-03-17T05:35:35;101375.22;;;12.55
81657;BMP280;71067;51.482;-0.580;2024-03-17T05:38:00;101387.91;;;12.66
81657;BMP280;71067;51.482;-0.580;2024-03-17T05:40:26;101390.03;;;12.62
81657;BMP280;71067;51.482;-0.580;2024-03-17T05:42:51;101362.34;;;12.45
81657;BMP280;71067;51.482;-0.580;2024-03-17T05:45:17;101370.97;;;12.54
81657;BMP280;71067;51.482;-0.580;2024-03-17T05:47:42;101373.75;;;12.52
81657;BMP280;71067;51.482;-0.580;2024-03-17T05:50:08;101387.38;;;12.54
81657;BMP280;71067;51.482;-0.580;2024-03-17T05:52:34;101349.66;;;12.34
81657;BMP280;71067;51.482;-0.580;2024-03-17T05:54:59;101379.59;;;12.54
81657;BMP280;71067;51.482;-0.580;2024-03-17T05:57:25;101345.75;;;12.38
81657;BMP280;71067;51.482;-0.580;2024-03-17T05:59:51;101358.31;;;12.43
81657;BMP280;71067;51.482;-0.580;2024-03-17T06:02:16;101360.91;;;12.43
81657;BMP280;71067;51.482;-0.580;2024-03-17T06:04:44;101369.81;;;12.48
81657;BMP280;71067;51.482;-0.580;2024-03-17T06:07:09;101377.00;;;12.54
81657;BMP280;71067;51.482;-0.580;2024-03-17T06:09:34;101374.88;;;12.50
81657;BMP280;71067;51.482;-0.580;2024-03-17T06:12:00;101359.59;;;12.47
81657;BMP280;71067;51.482;-0.580;2024-03-17T06:14:25;101372.75;;;12.53
81657;BMP280;71067;51.482;-0.580;2024-03-17T06:16:51;101373.13;;;12.58
81657;BMP280;71067;51.482;-0.580;2024-03-17T06:19:16;101353.75;;;12.45
81657;BMP280;71067;51.482;-0.580;2024-03-17T06:21:41;101372.78;;;12.61
81657;BMP280;71067;51.482;-0.580;2024-03-17T06:24:07;101380.59;;;12.61
81657;BMP280;71067;51.482;-0.580;2024-03-17T06:26:32;101349.69;;;12.42
81657;BMP280;71067;51.482;-0.580;2024-03-17T06:29:00;101348.38;;;12.46
81657;BMP280;71067;51.482;-0.580;2024-03-17T06:31:25;101366.31;;;12.57
81657;BMP280;71067;51.482;-0.580;2024-03-17T06:33:51;101363.06;;;12.55
81657;BMP280;71067;51.482;-0.580;2024-03-17T06:36:16;101355.91;;;12.57
81657;BMP280;71067;51.482;-0.580;2024-03-17T06:38:43;101364.06;;;12.62
81657;BMP280;71067;51.482;-0.580;2024-03-17T06:41:11;101364.06;;;12.62
81657;BMP280;71067;51.482;-0.580;2024-03-17T06:43:39;101361.44;;;12.62
81657;BMP280;71067;51.482;-0.580;2024-03-17T06:46:04;101338.69;;;12.56
81657;BMP280;71067;51.482;-0.580;2024-03-17T06:48:30;101351.06;;;12.62
81657;BMP280;71067;51.482;-0.580;2024-03-17T06:50:55;101317.38;;;12.45
81657;BMP280;71067;51.482;-0.580;2024-03-17T06:53:21;101343.25;;;12.62
81657;BMP280;71067;51.482;-0.580;2024-03-17T06:58:21;101343.25;;;12.62
81657;BMP280;71067;51.482;-0.580;2024-03-17T07:00:57;101341.63;;;12.61
81657;BMP280;71067;51.482;-0.580;2024-03-17T07:03:24;101315.94;;;12.42
81657;BMP280;71067;51.482;-0.580;2024-03-17T07:05:54;101336.91;;;12.57
81657;BMP280;71067;51.482;-0.580;2024-03-17T07:08:20;101345.38;;;12.67
81657;BMP280;71067;51.482;-0.580;2024-03-17T07:11:15;101350.56;;;12.67
81657;BMP280;71067;51.482;-0.580;2024-03-17T07:13:42;101323.75;;;12.50
81657;BMP280;71067;51.482;-0.580;2024-03-17T07:16:08;101332.06;;;12.62
81657;BMP280;71067;51.482;-0.580;2024-03-17T07:18:34;101310.78;;;12.50
81657;BMP280;71067;51.482;-0.580;2024-03-17T07:21:03;101328.00;;;12.67
81657;BMP280;71067;51.482;-0.580;2024-03-17T07:23:29;101345.91;;;12.70
81657;BMP280;71067;51.482;-0.580;2024-03-17T07:25:56;101345.06;;;12.70
81657;BMP280;71067;51.482;-0.580;2024-03-17T07:28:22;101331.56;;;12.66
81657;BMP280;71067;51.482;-0.580;2024-03-17T07:33:14;101306.38;;;12.59
81657;BMP280;71067;51.482;-0.580;2024-03-17T07:35:53;101327.38;;;12.73
81657;BMP280;71067;51.482;-0.580;2024-03-17T07:38:20;101296.34;;;12.56
81657;BMP280;71067;51.482;-0.580;2024-03-17T07:40:58;101293.59;;;12.57
81657;BMP280;71067;51.482;-0.580;2024-03-17T07:43:25;101303.34;;;12.63
81657;BMP280;71067;51.482;-0.580;2024-03-17T07:46:01;101301.38;;;12.65
81657;BMP280;71067;51.482;-0.580;2024-03-17T07:48:27;101317.47;;;12.77
81657;BMP280;71067;51.482;-0.580;2024-03-17T07:50:58;101290.69;;;12.68
81657;BMP280;71067;51.482;-0.580;2024-03-17T07:53:24;101303.69;;;12.76
81657;BMP280;71067;51.482;-0.580;2024-03-17T07:56:08;101297.69;;;12.76
81657;BMP280;71067;51.482;-0.580;2024-03-17T07:58:41;101292.31;;;12.77
81657;BMP280;71067;51.482;-0.580;2024-03-17T08:01:09;101277.34;;;12.71
81657;BMP280;71067;51.482;-0.580;2024-03-17T08:03:36;101301.09;;;12.84
81657;BMP280;71067;51.482;-0.580;2024-03-17T08:06:03;101295.72;;;12.86
81657;BMP280;71067;51.482;-0.580;2024-03-17T08:08:29;101298.03;;;12.89
81657;BMP280;71067;51.482;-0.580;2024-03-17T08:10:55;101274.13;;;12.77
81657;BMP280;71067;51.482;-0.580;2024-03-17T08:13:21;101282.88;;;12.92
81657;BMP280;71067;51.482;-0.580;2024-03-17T08:15:54;101278.34;;;12.86
81657;BMP280;71067;51.482;-0.580;2024-03-17T08:18:20;101265.69;;;12.83
81657;BMP280;71067;51.482;-0.580;2024-03-17T08:20:45;101275.47;;;12.98
81657;BMP280;71067;51.482;-0.580;2024-03-17T08:23:12;101247.66;;;12.82
81657;BMP280;71067;51.482;-0.580;2024-03-17T08:25:37;101247.50;;;12.83
81657;BMP280;71067;51.482;-0.580;2024-03-17T08:28:03;101275.09;;;13.01
81657;BMP280;71067;51.482;-0.580;2024-03-17T08:30:29;101248.78;;;12.87
81657;BMP280;71067;51.482;-0.580;2024-03-17T08:32:58;101244.41;;;12.88
81657;BMP280;71067;51.482;-0.580;2024-03-17T08:35:23;101265.53;;;13.01
81657;BMP280;71067;51.482;-0.580;2024-03-17T08:37:49;101249.78;;;12.94
81657;BMP280;71067;51.482;-0.580;2024-03-17T08:40:16;101273.16;;;13.11
81657;BMP280;71067;51.482;-0.580;2024-03-17T08:42:41;101271.34;;;13.11
81657;BMP280;71067;51.482;-0.580;2024-03-17T08:45:07;101259.69;;;13.07
81657;BMP280;71067;51.482;-0.580;2024-03-17T08:47:33;101270.69;;;13.17
81657;BMP280;71067;51.482;-0.580;2024-03-17T08:50:01;101268.44;;;13.22
81657;BMP280;71067;51.482;-0.580;2024-03-17T08:52:29;101228.81;;;12.96
81657;BMP280;71067;51.482;-0.580;2024-03-17T08:54:57;101250.41;;;13.13
81657;BMP280;71067;51.482;-0.580;2024-03-17T08:57:23;101233.50;;;13.09
81657;BMP280;71067;51.482;-0.580;2024-03-17T08:59:48;101242.94;;;13.18
81657;BMP280;71067;51.482;-0.580;2024-03-17T09:02:14;101254.63;;;13.22
81657;BMP280;71067;51.482;-0.580;2024-03-17T09:04:40;101247.50;;;13.16
81657;BMP280;71067;51.482;-0.580;2024-03-17T09:07:06;101244.22;;;13.14
81657;BMP280;71067;51.482;-0.580;2024-03-17T09:09:31;101244.69;;;13.17
81657;BMP280;71067;51.482;-0.580;2024-03-17T09:11:57;101249.13;;;13.17
81657;BMP280;71067;51.482;-0.580;2024-03-17T09:14:22;101244.91;;;13.16
81657;BMP280;71067;51.482;-0.580;2024-03-17T09:16:48;101259.19;;;13.28
81657;BMP280;71067;51.482;-0.580;2024-03-17T09:19:13;101249.13;;;13.17
81657;BMP280;71067;51.482;-0.580;2024-03-17T09:21:39;101238.88;;;13.15
81657;BMP280;71067;51.482;-0.580;2024-03-17T09:24:06;101254.59;;;13.30
81657;BMP280;71067;51.482;-0.580;2024-03-17T09:26:33;101249.38;;;13.30
81657;BMP280;71067;51.482;-0.580;2024-03-17T09:28:59;101222.94;;;13.18
81657;BMP280;71067;51.482;-0.580;2024-03-17T09:31:25;101220.34;;;13.18
81657;BMP280;71067;51.482;-0.580;2024-03-17T09:33:51;101226.66;;;13.24
81657;BMP280;71067;51.482;-0.580;2024-03-17T09:36:16;101220.16;;;13.20
81657;BMP280;71067;51.482;-0.580;2024-03-17T09:38:43;101227.63;;;13.31
81657;BMP280;71067;51.482;-0.580;2024-03-17T09:41:20;101232.19;;;13.37
81657;BMP280;71067;51.482;-0.580;2024-03-17T09:43:47;101240.63;;;13.39
81657;BMP280;71067;51.482;-0.580;2024-03-17T09:46:13;101204.56;;;13.28
81657;BMP280;71067;51.482;-0.580;2024-03-17T09:48:39;101198.84;;;13.24
81657;BMP280;71067;51.482;-0.580;2024-03-17T09:51:05;101186.38;;;13.20
81657;BMP280;71067;51.482;-0.580;2024-03-17T09:53:34;101215.88;;;13.43
81657;BMP280;71067;51.482;-0.580;2024-03-17T09:56:09;101210.06;;;13.41
81657;BMP280;71067;51.482;-0.580;2024-03-17T09:58:45;101207.16;;;13.36
81657;BMP280;71067;51.482;-0.580;2024-03-17T10:01:11;101180.84;;;13.23
81657;BMP280;71067;51.482;-0.580;2024-03-17T10:03:50;101214.09;;;13.43
81657;BMP280;71067;51.482;-0.580;2024-03-17T10:06:29;101204.50;;;13.44
81657;BMP280;71067;51.482;-0.580;2024-03-17T10:08:59;101217.66;;;13.50
81657;BMP280;71067;51.482;-0.580;2024-03-17T10:11:41;101194.78;;;13.38
81657;BMP280;71067;51.482;-0.580;2024-03-17T10:14:08;101193.50;;;13.42
81657;BMP280;71067;51.482;-0.580;2024-03-17T10:16:36;101199.31;;;13.44
81657;BMP280;71067;51.482;-0.580;2024-03-17T10:21:45;101204.19;;;13.55
81657;BMP280;71067;51.482;-0.580;2024-03-17T10:24:20;101218.56;;;13.73
81657;BMP280;71067;51.482;-0.580;2024-03-17T10:26:55;101197.75;;;13.73
81657;BMP280;71067;51.482;-0.580;2024-03-17T10:29:30;101201.28;;;13.80
81657;BMP280;71067;51.482;-0.580;2024-03-17T10:31:56;101209.41;;;13.85
81657;BMP280;71067;51.482;-0.580;2024-03-17T10:34:24;101198.69;;;13.80
81657;BMP280;71067;51.482;-0.580;2024-03-17T10:37:13;101190.72;;;13.74
81657;BMP280;71067;51.482;-0.580;2024-03-17T10:39:40;101202.09;;;13.81
81657;BMP280;71067;51.482;-0.580;2024-03-17T10:42:07;101213.13;;;13.91
81657;BMP280;71067;51.482;-0.580;2024-03-17T10:44:41;101218.78;;;13.94
81657;BMP280;71067;51.482;-0.580;2024-03-17T10:47:07;101211.78;;;13.95
81657;BMP280;71067;51.482;-0.580;2024-03-17T10:49:38;101214.88;;;13.98
81657;BMP280;71067;51.482;-0.580;2024-03-17T10:52:05;101199.34;;;13.82
81657;BMP280;71067;51.482;-0.580;2024-03-17T10:54:32;101191.88;;;13.79
81657;BMP280;71067;51.482;-0.580;2024-03-17T10:57:16;101229.69;;;13.98
81657;BMP280;71067;51.482;-0.580;2024-03-17T10:59:47;101207.63;;;13.86
81657;BMP280;71067;51.482;-0.580;2024-03-17T11:02:24;101204.50;;;13.90
81657;BMP280;71067;51.482;-0.580;2024-03-17T11:04:55;101188.75;;;13.84
81657;BMP280;71067;51.482;-0.580;2024-03-17T11:07:21;101197.47;;;13.99
81657;BMP280;71067;51.482;-0.580;2024-03-17T11:09:48;101214.13;;;14.13
81657;BMP280;71067;51.482;-0.580;2024-03-17T11:12:51;101216.06;;;14.19
81657;BMP280;71067;51.482;-0.580;2024-03-17T11:17:53;101218.63;;;14.27
81657;BMP280;71067;51.482;-0.580;2024-03-17T11:20:24;101220.13;;;14.21
81657;BMP280;71067;51.482;-0.580;2024-03-17T11:22:52;101209.53;;;14.23
81657;BMP280;71067;51.482;-0.580;2024-03-17T11:28:02;101216.25;;;14.40
81657;BMP280;71067;51.482;-0.580;2024-03-17T11:39:04;101205.31;;;14.44
81657;BMP280;71067;51.482;-0.580;2024-03-17T11:41:43;101200.09;;;14.44
81657;BMP280;71067;51.482;-0.580;2024-03-17T11:47:00;101220.25;;;14.50
81657;BMP280;71067;51.482;-0.580;2024-03-17T11:49:29;101218.59;;;14.49
81657;BMP280;71067;51.482;-0.580;2024-03-17T11:51:59;101214.41;;;14.48
81657;BMP280;71067;51.482;-0.580;2024-03-17T11:54:26;101213.75;;;14.46
81657;BMP280;71067;51.482;-0.580;2024-03-17T11:57:00;101220.84;;;14.52
81657;BMP280;71067;51.482;-0.580;2024-03-17T11:59:25;101214.34;;;14.56
81657;BMP280;71067;51.482;-0.580;2024-03-17T12:01:51;101205.44;;;14.51
81657;BMP280;71067;51.482;-0.580;2024-03-17T12:04:20;101220.16;;;14.58
81657;BMP280;71067;51.482;-0.580;2024-03-17T12:06:50;101199.41;;;14.50
81657;BMP280;71067;51.482;-0.580;2024-03-17T12:09:21;101221.28;;;14.64
81657;BMP280;71067;51.482;-0.580;2024-03-17T12:14:41;101186.28;;;14.58
81657;BMP280;71067;51.482;-0.580;2024-03-17T12:17:08;101217.53;;;14.81
81657;BMP280;71067;51.482;-0.580;2024-03-17T12:19:35;101190.81;;;14.64
81657;BMP280;71067;51.482;-0.580;2024-03-17T12:22:02;101204.56;;;14.73
81657;BMP280;71067;51.482;-0.580;2024-03-17T12:24:35;101205.31;;;14.81
81657;BMP280;71067;51.482;-0.580;2024-03-17T12:27:04;101223.50;;;14.89
81657;BMP280;71067;51.482;-0.580;2024-03-17T12:29:37;101193.19;;;14.74
81657;BMP280;71067;51.482;-0.580;2024-03-17T12:32:25;101222.53;;;14.90
81657;BMP280;71067;51.482;-0.580;2024-03-17T12:34:57;101224.78;;;14.93
81657;BMP280;71067;51.482;-0.580;2024-03-17T12:37:25;101202.00;;;14.87
81657;BMP280;71067;51.482;-0.580;2024-03-17T12:39:56;101213.00;;;14.97
81657;BMP280;71067;51.482;-0.580;2024-03-17T12:42:28;101191.94;;;14.84
81657;BMP280;71067;51.482;-0.580;2024-03-17T12:47:23;101215.88;;;15.02
81657;BMP280;71067;51.482;-0.580;2024-03-17T12:49:52;101202.16;;;15.09
81657;BMP280;71067;51.482;-0.580;2024-03-17T12:52:23;101186.50;;;15.09
81657;BMP280;71067;51.482;-0.580;2024-03-17T12:55:02;101202.13;;;15.23
81657;BMP280;71067;51.482;-0.580;2024-03-17T12:57:47;101189.91;;;15.24
81657;BMP280;71067;51.482;-0.580;2024-03-17T13:00:32;101186.06;;;15.20
81657;BMP280;71067;51.482;-0.580;2024-03-17T13:02:58;101197.34;;;15.27
81657;BMP280;71067;51.482;-0.580;2024-03-17T13:05:24;101172.34;;;15.18
81657;BMP280;71067;51.482;-0.580;2024-03-17T13:07:50;101183.72;;;15.25
81657;BMP280;71067;51.482;-0.580;2024-03-17T13:10:17;101183.97;;;15.30
81657;BMP280;71067;51.482;-0.580;2024-03-17T13:12:44;101200.78;;;15.42
81657;BMP280;71067;51.482;-0.580;2024-03-17T13:15:12;101196.84;;;15.46
81657;BMP280;71067;51.482;-0.580;2024-03-17T13:17:37;101196.16;;;15.44
81657;BMP280;71067;51.482;-0.580;2024-03-17T13:20:03;101182.16;;;15.30
81657;BMP280;71067;51.482;-0.580;2024-03-17T13:22:29;101197.09;;;15.36
81657;BMP280;71067;51.482;-0.580;2024-03-17T13:24:54;101209.88;;;15.46
81657;BMP280;71067;51.482;-0.580;2024-03-17T13:27:20;101204.81;;;15.44
81657;BMP280;71067;51.482;-0.580;2024-03-17T13:29:48;101182.25;;;15.37
81657;BMP280;71067;51.482;-0.580;2024-03-17T13:32:15;101187.00;;;15.33
81657;BMP280;71067;51.482;-0.580;2024-03-17T13:34:42;101193.56;;;15.44
81657;BMP280;71067;51.482;-0.580;2024-03-17T13:37:07;101194.47;;;15.51
81657;BMP280;71067;51.482;-0.580;2024-03-17T13:39:33;101193.22;;;15.47
81657;BMP280;71067;51.482;-0.580;2024-03-17T13:42:00;101194.38;;;15.44
81657;BMP280;71067;51.482;-0.580;2024-03-17T13:44:32;101189.53;;;15.41
81657;BMP280;71067;51.482;-0.580;2024-03-17T13:46:58;101199.16;;;15.41
81657;BMP280;71067;51.482;-0.580;2024-03-17T13:49:24;101179.53;;;15.30
81657;BMP280;71067;51.482;-0.580;2024-03-17T13:51:52;101195.50;;;15.35
81657;BMP280;71067;51.482;-0.580;2024-03-17T13:54:17;101163.88;;;15.16
81657;BMP280;71067;51.482;-0.580;2024-03-17T13:56:46;101190.88;;;15.37
81657;BMP280;71067;51.482;-0.580;2024-03-17T13:59:12;101185.66;;;15.37
81657;BMP280;71067;51.482;-0.580;2024-03-17T14:01:37;101172.28;;;15.26
81657;BMP280;71067;51.482;-0.580;2024-03-17T14:04:02;101168.66;;;15.27
81657;BMP280;71067;51.482;-0.580;2024-03-17T14:06:28;101186.84;;;15.35
81657;BMP280;71067;51.482;-0.580;2024-03-17T14:08:53;101152.50;;;15.17
81657;BMP280;71067;51.482;-0.580;2024-03-17T14:11:18;101177.22;;;15.35
81657;BMP280;71067;51.482;-0.580;2024-03-17T14:13:44;101172.44;;;15.39
81657;BMP280;71067;51.482;-0.580;2024-03-17T14:16:09;101142.50;;;15.35